createdAt,value
2023-04-15T00:01:08.183Z,96267.97
2023-04-15T00:03:35.598Z,96206.22
2023-04-15T00:06:02.528Z,96218.09
2023-04-15T00:08:30.167Z,96249.75
2023-04-15T00:10:56.891Z,96259.66
2023-04-15T00:13:23.752Z,96254.91
2023-04-15T00:15:50.337Z,96176.16
2023-04-15T00:18:16.986Z,96207.03
2023-04-15T00:20:43.623Z,96239.41
2023-04-15T00:23:10.235Z,96218.00
2023-04-15T00:25:36.844Z,96188.72
2023-04-15T00:28:04.211Z,96246.53
2023-04-15T00:30:31.666Z,96255.22
2023-04-15T00:32:58.380Z,96153.13
2023-04-15T00:35:25.544Z,96245.72
2023-04-15T00:37:52.123Z,96230.66
2023-04-15T00:40:21.794Z,96242.13
2023-04-15T00:42:48.430Z,96232.22
2023-04-15T00:45:15.686Z,96210.00
2023-04-15T00:47:43.950Z,96225.53
2023-04-15T00:50:12.602Z,96166.59
2023-04-15T00:52:40.121Z,96265.63
2023-04-15T00:55:07.582Z,96267.19
2023-04-15T00:57:35.290Z,96279.09
2023-04-15T01:00:02.661Z,96289.81
2023-04-15T01:02:29.413Z,96285.47
2023-04-15T01:04:56.824Z,96277.53
2023-04-15T01:07:23.523Z,96249.00
2023-04-15T01:09:50.270Z,96208.97
2023-04-15T01:12:17.870Z,96240.66
2023-04-15T01:14:44.700Z,96231.13
2023-04-15T01:17:11.353Z,96238.66
2023-04-15T01:19:38.393Z,96197.09
2023-04-15T01:22:05.669Z,96256.88
2023-04-15T01:24:36.018Z,96199.06
2023-04-15T01:27:03.500Z,96240.22
2023-04-15T01:29:32.658Z,96232.28
2023-04-15T01:31:59.464Z,96229.16
2023-04-15T01:34:26.390Z,96246.63
2023-04-15T01:36:53.040Z,96244.25
2023-04-15T01:39:19.676Z,96273.59
2023-04-15T01:41:46.239Z,96214.56
2023-04-15T01:44:12.869Z,96190.38
2023-04-15T01:46:39.449Z,96227.63
2023-04-15T01:49:06.530Z,96269.59
2023-04-15T01:51:33.252Z,96278.34
2023-04-15T01:54:00.047Z,96207.44
2023-04-15T01:56:26.844Z,96207.84
2023-04-15T01:58:53.735Z,96263.28
2023-04-15T02:01:20.909Z,96272.81
2023-04-15T02:03:48.111Z,96263.69
2023-04-15T02:06:15.383Z,96214.19
2023-04-15T02:08:42.071Z,96243.47
2023-04-15T02:11:09.412Z,96261.72
2023-04-15T02:13:36.370Z,96266.88
2023-04-15T02:16:03.513Z,96255.38
2023-04-15T02:18:30.623Z,96269.66
2023-04-15T02:20:58.840Z,96272.81
2023-04-15T02:23:25.844Z,96276.00
2023-04-15T02:25:53.458Z,96334.72
2023-04-15T02:28:21.196Z,96284.72
2023-04-15T02:30:52.762Z,96289.47
2023-04-15T02:33:20.330Z,96297.44
2023-04-15T02:35:47.482Z,96289.50
2023-04-15T02:38:18.045Z,96292.69
2023-04-15T02:40:44.688Z,96190.84
2023-04-15T02:43:11.657Z,96247.50
2023-04-15T02:45:38.249Z,96272.06
2023-04-15T02:48:06.698Z,96231.63
2023-04-15T02:50:33.507Z,96275.19
2023-04-15T02:53:01.669Z,96238.75
2023-04-15T02:55:28.994Z,96229.28
2023-04-15T02:57:55.882Z,96219.75
2023-04-15T03:00:25.297Z,96229.25
2023-04-15T03:02:56.798Z,96270.41
2023-04-15T03:05:26.279Z,96268.06
2023-04-15T03:07:53.407Z,96264.13
2023-04-15T03:10:20.316Z,96281.22
2023-04-15T03:12:47.206Z,96283.97
2023-04-15T03:15:14.087Z,96297.44
2023-04-15T03:17:40.836Z,96216.59
2023-04-15T03:20:07.767Z,96291.09
2023-04-15T03:22:34.467Z,96283.19
2023-04-15T03:25:01.146Z,96288.72
2023-04-15T03:27:27.846Z,96230.06
2023-04-15T03:29:54.422Z,96283.16
2023-04-15T03:32:21.130Z,96266.53
2023-04-15T03:34:47.818Z,96263.38
2023-04-15T03:37:14.454Z,96251.50
2023-04-15T03:39:41.800Z,96299.00
2023-04-15T03:42:08.422Z,96326.00
2023-04-15T03:44:35.050Z,96232.03
2023-04-15T03:47:01.907Z,96280.00
2023-04-15T03:49:28.641Z,96289.50
2023-04-15T03:51:55.568Z,96148.84
2023-04-15T03:54:22.195Z,96289.50
2023-04-15T03:56:48.761Z,96303.38
2023-04-15T03:59:15.531Z,96253.84
2023-04-15T04:01:42.147Z,96321.22
2023-04-15T04:04:09.308Z,96144.09
2023-04-15T04:06:36.020Z,96283.97
2023-04-15T04:09:03.098Z,96345.00
2023-04-15T04:11:29.893Z,96311.72
2023-04-15T04:13:56.606Z,96345.81
2023-04-15T04:16:23.315Z,96360.88
2023-04-15T04:18:50.090Z,96373.56
2023-04-15T04:21:17.091Z,96367.25
2023-04-15T04:23:43.759Z,96371.22
2023-04-15T04:26:10.562Z,96364.88
2023-04-15T04:28:37.317Z,96368.69
2023-04-15T04:31:03.928Z,96353.66
2023-04-15T04:33:30.638Z,96345.91
2023-04-15T04:35:57.264Z,96337.59
2023-04-15T04:38:23.878Z,96281.66
2023-04-15T04:40:50.783Z,96380.56
2023-04-15T04:43:17.436Z,96376.66
2023-04-15T04:45:44.173Z,96373.53
2023-04-15T04:48:10.927Z,96366.34
2023-04-15T04:50:37.536Z,96366.34
2023-04-15T04:53:04.132Z,96256.03
2023-04-15T04:55:31.991Z,96383.03
2023-04-15T04:57:58.591Z,96340.97
2023-04-15T05:00:25.455Z,96385.06
2023-04-15T05:02:52.313Z,96323.50
2023-04-15T05:05:19.162Z,96345.00
2023-04-15T05:07:46.105Z,96287.91
2023-04-15T05:10:13.056Z,96314.09
2023-04-15T05:12:39.684Z,96368.41
2023-04-15T05:15:07.022Z,96365.66
2023-04-15T05:17:35.316Z,96354.94
2023-04-15T05:20:03.076Z,96367.22
2023-04-15T05:22:29.805Z,96372.00
2023-04-15T05:24:56.452Z,96364.84
2023-04-15T05:27:24.102Z,96363.25
2023-04-15T05:29:50.684Z,96368.41
2023-04-15T05:32:17.533Z,96328.34
2023-04-15T05:34:44.144Z,96389.41
2023-04-15T05:37:10.995Z,96368.69
2023-04-15T05:39:37.607Z,96342.47
2023-04-15T05:42:06.007Z,96293.25
2023-04-15T05:44:32.938Z,96321.72
2023-04-15T05:46:59.659Z,96314.50
2023-04-15T05:49:26.296Z,96364.94
2023-04-15T05:51:52.973Z,96288.56
2023-04-15T05:54:20.350Z,96375.41
2023-04-15T05:56:47.095Z,96379.91
2023-04-15T05:59:13.772Z,96338.75
2023-04-15T06:01:40.700Z,96338.16
2023-04-15T06:04:07.387Z,96390.38
2023-04-15T06:06:34.681Z,96394.84
2023-04-15T06:09:01.520Z,96365.34
2023-04-15T06:11:28.379Z,96409.91
2023-04-15T06:13:54.952Z,96414.22
2023-04-15T06:16:21.990Z,96361.09
2023-04-15T06:18:48.877Z,96347.00
2023-04-15T06:21:16.014Z,96390.28
2023-04-15T06:23:42.888Z,96406.72
2023-04-15T06:26:09.488Z,96359.09
2023-04-15T06:28:36.206Z,96415.47
2023-04-15T06:31:03.537Z,96368.25
2023-04-15T06:33:30.151Z,96422.84
2023-04-15T06:35:56.928Z,96424.44
2023-04-15T06:38:23.533Z,96426.38
2023-04-15T06:40:50.524Z,96289.66
2023-04-15T06:43:17.122Z,96417.56
2023-04-15T06:45:43.825Z,96428.50
2023-04-15T06:48:10.397Z,96437.19
2023-04-15T06:50:36.967Z,96444.25
2023-04-15T06:53:03.531Z,96427.94
2023-04-15T06:55:31.635Z,96429.81
2023-04-15T06:57:58.285Z,96439.09
2023-04-15T07:00:25.529Z,96440.84
2023-04-15T07:02:52.834Z,96446.91
2023-04-15T07:05:20.167Z,96396.81
2023-04-15T07:07:46.882Z,96408.13
2023-04-15T07:10:15.011Z,96404.25
2023-04-15T07:12:42.997Z,96452.72
2023-04-15T07:15:10.066Z,96388.19
2023-04-15T07:17:37.187Z,96443.97
2023-04-15T07:20:05.031Z,96444.00
2023-04-15T07:22:31.723Z,96461.84
2023-04-15T07:24:58.394Z,96452.72
2023-04-15T07:27:25.041Z,96418.06
2023-04-15T07:29:52.319Z,96439.59
2023-04-15T07:32:19.595Z,96448.69
2023-04-15T07:34:46.417Z,96454.03
2023-04-15T07:37:13.669Z,96418.22
2023-04-15T07:39:40.387Z,96458.31
2023-04-15T07:42:07.019Z,96467.88
2023-04-15T07:44:33.627Z,96454.22
2023-04-15T07:47:00.566Z,96438.63
2023-04-15T07:49:27.176Z,96469.31
2023-04-15T07:51:53.801Z,96447.84
2023-04-15T07:54:20.882Z,96337.28
2023-04-15T07:56:47.436Z,96461.72
2023-04-15T07:59:17.811Z,96470.28
2023-04-15T08:01:45.111Z,96467.78
2023-04-15T08:04:11.990Z,96473.78
2023-04-15T08:06:40.094Z,96477.22
2023-04-15T08:09:08.247Z,96474.59
2023-04-15T08:11:34.986Z,96473.47
2023-04-15T08:14:01.864Z,96479.78
2023-04-15T08:16:28.708Z,96471.09
2023-04-15T08:18:56.533Z,96462.16
2023-04-15T08:21:23.981Z,96423.94
2023-04-15T08:23:52.232Z,96420.34
2023-04-15T08:26:21.159Z,96460.44
2023-04-15T08:28:48.928Z,96465.56
2023-04-15T08:31:18.094Z,96464.41
2023-04-15T08:33:44.852Z,96470.31
2023-04-15T08:36:11.618Z,96469.19
2023-04-15T08:38:38.217Z,96468.91
2023-04-15T08:41:23.407Z,96467.53
2023-04-15T08:43:57.964Z,96420.94
2023-04-15T08:46:24.924Z,96461.84
2023-04-15T08:48:52.501Z,96443.97
2023-04-15T08:51:19.939Z,96443.03
2023-04-15T08:53:47.551Z,96456.66
2023-04-15T08:56:19.103Z,96465.19
2023-04-15T08:58:46.826Z,96396.34
2023-04-15T09:01:13.682Z,96461.06
2023-04-15T09:03:40.941Z,96403.72
2023-04-15T09:06:07.710Z,96457.00
2023-04-15T09:08:37.202Z,96422.69
2023-04-15T09:11:04.181Z,96368.66
2023-04-15T09:13:31.639Z,96470.03
2023-04-15T09:15:58.723Z,96458.38
2023-04-15T09:18:33.506Z,96427.22
2023-04-15T09:21:14.890Z,96363.88
2023-04-15T09:23:54.359Z,96456.03
2023-04-15T09:26:40.424Z,96129.56
2023-04-15T09:29:09.512Z,96445.91
2023-04-15T09:31:37.650Z,96447.88
2023-04-15T09:34:04.721Z,96433.97
2023-04-15T09:36:51.833Z,96446.03
2023-04-15T09:39:18.516Z,96429.00
2023-04-15T09:41:45.245Z,96439.78
2023-04-15T09:44:25.374Z,96441.53
2023-04-15T09:46:51.996Z,96439.50
2023-04-15T09:49:19.551Z,96432.25
2023-04-15T09:51:57.645Z,96437.28
2023-04-15T09:54:36.572Z,96431.06
2023-04-15T09:57:10.485Z,96407.56
2023-04-15T09:59:37.398Z,96425.84
2023-04-15T10:02:07.733Z,96424.63
2023-04-15T10:04:37.479Z,96426.03
2023-04-15T10:07:06.284Z,96428.13
2023-04-15T10:09:34.886Z,96429.00
2023-04-15T10:12:04.253Z,96368.91
2023-04-15T10:14:34.629Z,96427.91
2023-04-15T10:17:05.824Z,96416.22
2023-04-15T10:19:36.621Z,96422.16
2023-04-15T10:22:04.127Z,96385.06
2023-04-15T10:24:34.315Z,96419.09
2023-04-15T10:27:04.171Z,96365.38
2023-04-15T10:29:31.405Z,96414.88
2023-04-15T10:32:00.023Z,96411.28
2023-04-15T10:34:27.636Z,96412.56
2023-04-15T10:37:03.709Z,96401.44
2023-04-15T10:39:36.795Z,96405.38
2023-04-15T10:42:18.211Z,96405.75
2023-04-15T10:44:52.464Z,96406.84
2023-04-15T10:47:21.596Z,96393.19
2023-04-15T10:50:01.087Z,96356.84
2023-04-15T10:52:29.455Z,96393.84
2023-04-15T10:55:26.378Z,96388.31
2023-04-15T10:58:01.087Z,96393.69
2023-04-15T11:00:32.673Z,96395.69
2023-04-15T11:03:06.332Z,96388.88
2023-04-15T11:05:42.031Z,96381.38
2023-04-15T11:08:10.057Z,96381.81
2023-04-15T11:10:36.705Z,96378.31
2023-04-15T11:13:17.465Z,96372.44
2023-04-15T11:15:45.699Z,96380.72
2023-04-15T11:18:12.609Z,96369.91
2023-04-15T11:20:40.961Z,96330.19
2023-04-15T11:23:15.275Z,96360.31
2023-04-15T11:25:43.510Z,96367.59
2023-04-15T11:28:11.533Z,96362.22
2023-04-15T11:30:40.092Z,96344.13
2023-04-15T11:33:14.752Z,96277.28
2023-04-15T11:35:42.588Z,96345.56
2023-04-15T11:38:12.001Z,96355.25
2023-04-15T11:40:38.895Z,96343.25
2023-04-15T11:43:13.709Z,96348.28
2023-04-15T11:46:01.073Z,96307.47
2023-04-15T11:48:33.775Z,96342.47
2023-04-15T11:51:07.869Z,96341.16
2023-04-15T11:53:50.861Z,96327.03
2023-04-15T11:56:22.586Z,96331.75
2023-04-15T11:58:53.311Z,96305.38
2023-04-15T12:01:20.151Z,96326.13
2023-04-15T12:03:48.397Z,96325.50
2023-04-15T12:06:19.206Z,96318.28
2023-04-15T12:09:04.748Z,96318.25
2023-04-15T12:11:34.121Z,96333.66
2023-04-15T12:14:09.648Z,96316.22
2023-04-15T12:16:48.437Z,96322.28
2023-04-15T12:19:36.095Z,96311.41
2023-04-15T12:22:13.934Z,96314.47
2023-04-15T12:24:49.568Z,96313.03
2023-04-15T12:27:17.090Z,96276.34
2023-04-15T12:29:44.005Z,96275.31
2023-04-15T12:32:11.696Z,96312.72
2023-04-15T12:34:41.064Z,96318.31
2023-04-15T12:37:09.915Z,96307.94
2023-04-15T12:39:41.556Z,96302.84
2023-04-15T12:42:09.239Z,96304.41
2023-04-15T12:44:36.718Z,96322.31
2023-04-15T12:47:03.871Z,96311.94
2023-04-15T12:49:32.659Z,96319.06
2023-04-15T12:52:01.353Z,96312.16
2023-04-15T12:54:31.805Z,96306.13
2023-04-15T12:56:59.742Z,96285.59
2023-04-15T12:59:26.755Z,96092.53
2023-04-15T13:01:53.935Z,96321.22
2023-04-15T13:04:22.026Z,96305.22
2023-04-15T13:06:48.937Z,96273.94
2023-04-15T13:09:15.846Z,96310.97
2023-04-15T13:11:42.600Z,96284.75
2023-04-15T13:14:11.699Z,96305.44
2023-04-15T13:16:38.925Z,96256.84
2023-04-15T13:19:05.710Z,96311.63
2023-04-15T13:21:35.753Z,96312.19
2023-04-15T13:24:04.054Z,96321.19
2023-04-15T13:26:31.708Z,96313.09
2023-04-15T13:28:58.556Z,96261.69
2023-04-15T13:31:25.661Z,96325.00
2023-04-15T13:33:52.331Z,96089.00
2023-04-15T13:36:18.988Z,96335.38
2023-04-15T13:38:45.793Z,96328.25
2023-04-15T13:41:12.428Z,96328.34
2023-04-15T13:43:39.007Z,96338.59
2023-04-15T13:46:05.861Z,96266.41
2023-04-15T13:48:32.455Z,96331.75
2023-04-15T13:50:59.027Z,96339.84
2023-04-15T13:53:33.907Z,96302.41
2023-04-15T13:56:06.284Z,96325.69
2023-04-15T13:58:32.919Z,96215.28
2023-04-15T14:00:59.557Z,96323.84
2023-04-15T14:03:26.358Z,96320.28
2023-04-15T14:05:56.138Z,96223.44
2023-04-15T14:08:23.380Z,96291.22
2023-04-15T14:10:50.075Z,96317.97
2023-04-15T14:13:16.770Z,96323.91
2023-04-15T14:15:43.352Z,96330.97
2023-04-15T14:18:09.916Z,96255.03
2023-04-15T14:20:36.476Z,96307.28
2023-04-15T14:23:03.082Z,96301.00
2023-04-15T14:25:33.677Z,96316.84
2023-04-15T14:28:01.694Z,96317.63
2023-04-15T14:30:28.392Z,96308.75
2023-04-15T14:32:55.139Z,96305.59
2023-04-15T14:35:21.856Z,96320.06
2023-04-15T14:37:48.527Z,96278.66
2023-04-15T14:40:15.397Z,96323.75
2023-04-15T14:42:42.022Z,96316.41
2023-04-15T14:45:09.317Z,96322.00
2023-04-15T14:47:36.010Z,96361.69
2023-04-15T14:50:02.861Z,96335.03
2023-04-15T14:52:33.165Z,96321.78
2023-04-15T14:54:59.762Z,96322.78
2023-04-15T14:57:26.290Z,96330.88
2023-04-15T14:59:56.718Z,96300.75
2023-04-15T15:02:37.553Z,96334.59
2023-04-15T15:05:06.638Z,96329.47
2023-04-15T15:07:33.456Z,96330.38
2023-04-15T15:10:00.308Z,96323.59
2023-04-15T15:12:26.934Z,96198.19
2023-04-15T15:14:55.717Z,96325.91
2023-04-15T15:17:22.310Z,96216.16
2023-04-15T15:19:49.023Z,96320.50
2023-04-15T15:22:15.693Z,96205.72
2023-04-15T15:24:42.403Z,96315.81
2023-04-15T15:27:09.000Z,96327.84
2023-04-15T15:29:35.789Z,96316.25
2023-04-15T15:32:02.604Z,96315.22
2023-04-15T15:34:32.172Z,96322.34
2023-04-15T15:36:58.845Z,96269.56
2023-04-15T15:39:25.617Z,96315.59
2023-04-15T15:41:52.449Z,96305.03
2023-04-15T15:44:19.010Z,96295.66
2023-04-15T15:46:45.724Z,96323.00
2023-04-15T15:49:13.884Z,96308.28
2023-04-15T15:51:40.597Z,96314.91
2023-04-15T15:54:07.275Z,96319.09
2023-04-15T15:56:35.110Z,96327.72
2023-04-15T15:59:01.706Z,96315.81
2023-04-15T16:01:28.448Z,96316.94
2023-04-15T16:03:55.450Z,96320.78
2023-04-15T16:06:22.209Z,96315.38
2023-04-15T16:08:48.994Z,96305.03
2023-04-15T16:11:15.713Z,96331.34
2023-04-15T16:13:42.311Z,96297.38
2023-04-15T16:16:08.965Z,96319.63
2023-04-15T16:18:35.653Z,96242.72
2023-04-15T16:21:02.426Z,96322.53
2023-04-15T16:23:29.021Z,96323.53
2023-04-15T16:25:55.889Z,96310.72
2023-04-15T16:28:26.990Z,96336.47
2023-04-15T16:30:54.703Z,96330.03
2023-04-15T16:33:21.388Z,96314.56
2023-04-15T16:35:48.116Z,96288.38
2023-04-15T16:38:14.720Z,96333.22
2023-04-15T16:40:42.691Z,96330.44
2023-04-15T16:43:11.318Z,96332.66
2023-04-15T16:45:38.256Z,96340.28
2023-04-15T16:48:05.196Z,96331.28
2023-04-15T16:50:31.958Z,96308.34
2023-04-15T16:52:58.536Z,96337.28
2023-04-15T16:55:25.397Z,96333.50
2023-04-15T16:58:01.485Z,96332.66
2023-04-15T17:00:31.822Z,96333.44
2023-04-15T17:02:59.343Z,96291.28
2023-04-15T17:05:27.655Z,96330.38
2023-04-15T17:07:54.585Z,96339.44
2023-04-15T17:10:21.259Z,96341.91
2023-04-15T17:12:47.883Z,96353.44
2023-04-15T17:15:14.456Z,96310.13
2023-04-15T17:17:41.114Z,96345.53
2023-04-15T17:20:08.061Z,96344.63
2023-04-15T17:22:34.779Z,96347.66
2023-04-15T17:25:01.459Z,96356.66
2023-04-15T17:27:28.993Z,96371.69
2023-04-15T17:29:56.212Z,96349.78
2023-04-15T17:32:23.720Z,96359.41
2023-04-15T17:34:51.315Z,96345.63
2023-04-15T17:37:18.603Z,96298.91
2023-04-15T17:39:45.449Z,96335.63
2023-04-15T17:42:12.461Z,96371.47
2023-04-15T17:44:39.173Z,96377.25
2023-04-15T17:47:05.833Z,96386.44
2023-04-15T17:49:34.224Z,96388.03
2023-04-15T17:52:01.325Z,96371.25
2023-04-15T17:54:28.071Z,96391.78
2023-04-15T17:56:54.812Z,96319.06
2023-04-15T17:59:21.584Z,96384.78
2023-04-15T18:01:48.336Z,96402.81
2023-04-15T18:04:17.148Z,96333.72
2023-04-15T18:06:43.838Z,96415.66
2023-04-15T18:09:10.485Z,96422.38
2023-04-15T18:11:39.052Z,96425.50
2023-04-15T18:14:05.993Z,96427.19
2023-04-15T18:16:32.778Z,96433.63
2023-04-15T18:18:59.633Z,96418.28
2023-04-15T18:21:27.149Z,96373.66
2023-04-15T18:23:53.748Z,96382.75
2023-04-15T18:26:21.641Z,96450.53
2023-04-15T18:28:48.310Z,96451.34
2023-04-15T18:31:14.920Z,96451.72
2023-04-15T18:33:41.553Z,96451.38
2023-04-15T18:36:08.226Z,96467.41
2023-04-15T18:38:34.806Z,96347.97
2023-04-15T18:41:04.080Z,96409.81
2023-04-15T18:43:30.812Z,96464.47
2023-04-15T18:45:57.469Z,96436.03
2023-04-15T18:48:26.124Z,96468.31
2023-04-15T18:50:54.121Z,96468.47
2023-04-15T18:53:21.518Z,96477.09
2023-04-15T18:55:48.343Z,96465.81
2023-04-15T18:58:15.188Z,96468.78
2023-04-15T19:00:43.792Z,96493.47
2023-04-15T19:03:11.739Z,96491.84
2023-04-15T19:05:38.611Z,96485.84
2023-04-15T19:08:05.604Z,96484.63
2023-04-15T19:10:33.878Z,96486.69
2023-04-15T19:13:00.504Z,96483.97
2023-04-15T19:15:27.106Z,96494.31
2023-04-15T19:17:53.716Z,96496.25
2023-04-15T19:20:20.443Z,96491.88
2023-04-15T19:22:47.494Z,96499.13
2023-04-15T19:25:14.303Z,96487.09
2023-04-15T19:27:40.856Z,96433.34
2023-04-15T19:30:08.351Z,96476.88
2023-04-15T19:32:36.053Z,96486.59
2023-04-15T19:35:02.891Z,96421.19
2023-04-15T19:37:29.482Z,96499.38
2023-04-15T19:39:56.331Z,96485.13
2023-04-15T19:42:22.976Z,96498.66
2023-04-15T19:44:49.663Z,96507.53
2023-04-15T19:47:16.606Z,96508.41
2023-04-15T19:49:43.482Z,96435.50
2023-04-15T19:52:10.095Z,96439.47
2023-04-15T19:54:37.002Z,96506.91
2023-04-15T19:57:03.665Z,96502.53
2023-04-15T19:59:30.331Z,96510.09
2023-04-15T20:01:57.329Z,96502.22
2023-04-15T20:04:24.048Z,96485.13
2023-04-15T20:06:50.820Z,96464.28
2023-04-15T20:09:17.556Z,96521.84
2023-04-15T20:12:09.546Z,96496.09
2023-04-15T20:14:30.999Z,96519.19
2023-04-15T20:16:57.592Z,96515.97
2023-04-15T20:19:24.193Z,96451.09
2023-04-15T20:21:52.496Z,96530.44
2023-04-15T20:24:20.421Z,96528.84
2023-04-15T20:26:47.423Z,96484.50
2023-04-15T20:29:14.181Z,96539.22
2023-04-15T20:31:41.250Z,96535.69
2023-04-15T20:34:09.962Z,96517.03
2023-04-15T20:36:38.032Z,96532.91
2023-04-15T20:39:04.743Z,96507.56
2023-04-15T20:41:31.499Z,96540.09
2023-04-15T20:43:58.088Z,96519.47
2023-04-15T20:46:26.617Z,96529.84
2023-04-15T20:48:54.163Z,96539.00
2023-04-15T20:51:20.810Z,96524.78
2023-04-15T20:53:47.381Z,96546.59
2023-04-15T20:56:13.967Z,96526.75
2023-04-15T20:58:41.264Z,96545.03
2023-04-15T21:01:07.978Z,96546.22
2023-04-15T21:03:34.958Z,96521.19
2023-04-15T21:06:01.687Z,96465.22
2023-04-15T21:08:31.937Z,96523.56
2023-04-15T21:10:58.617Z,96539.47
2023-04-15T21:13:25.285Z,96539.47
2023-04-15T21:15:54.150Z,96543.44
2023-04-15T21:18:22.000Z,96183.25
2023-04-15T21:21:01.941Z,96555.38
2023-04-15T21:23:29.886Z,96553.78
2023-04-15T21:25:57.372Z,96559.31
2023-04-15T21:28:23.936Z,96555.78
2023-04-15T21:30:50.786Z,96554.97
2023-04-15T21:33:20.270Z,96512.44
2023-04-15T21:35:46.889Z,96556.16
2023-04-15T21:38:13.721Z,96572.03
2023-04-15T21:40:40.850Z,96547.41
2023-04-15T21:43:08.020Z,96537.47
2023-04-15T21:45:35.445Z,96558.94
2023-04-15T21:48:08.017Z,96560.13
2023-04-15T21:50:36.843Z,96512.84
2023-04-15T21:53:04.484Z,96559.31
2023-04-15T21:55:31.037Z,96562.47
2023-04-15T21:57:57.565Z,96564.09
2023-04-15T22:00:24.290Z,96491.78
2023-04-15T22:02:51.576Z,96540.25
2023-04-15T22:05:18.353Z,96560.91
2023-04-15T22:07:44.930Z,96565.66
2023-04-15T22:10:11.828Z,96559.31
2023-04-15T22:12:41.879Z,96517.19
2023-04-15T22:15:09.022Z,96570.38
2023-04-15T22:17:35.711Z,96580.66
2023-04-15T22:20:03.262Z,96566.72
2023-04-15T22:22:43.433Z,96567.84
2023-04-15T22:25:11.409Z,96568.25
2023-04-15T22:27:38.044Z,96534.28
2023-04-15T22:30:05.189Z,96582.41
2023-04-15T22:32:31.838Z,96568.91
2023-04-15T22:34:58.489Z,96560.91
2023-04-15T22:37:25.175Z,96548.16
2023-04-15T22:39:52.013Z,96581.75
2023-04-15T22:42:18.584Z,96566.22
2023-04-15T22:44:45.191Z,96549.03
2023-04-15T22:47:11.782Z,96573.66
2023-04-15T22:49:39.481Z,96567.00
2023-04-15T22:52:06.135Z,96554.31
2023-04-15T22:54:33.795Z,96571.69
2023-04-15T22:57:01.089Z,96559.50
2023-04-15T22:59:27.723Z,96563.00
2023-04-15T23:01:54.687Z,96559.84
2023-04-15T23:04:23.365Z,96553.50
2023-04-15T23:06:52.639Z,96548.72
2023-04-15T23:09:19.232Z,96556.16
2023-04-15T23:11:45.809Z,96490.59
2023-04-15T23:14:12.392Z,96564.56
2023-04-15T23:16:39.002Z,96535.53
2023-04-15T23:19:05.707Z,96558.84
2023-04-15T23:21:32.413Z,96562.56
2023-04-15T23:23:58.982Z,96568.66
2023-04-15T23:26:27.290Z,96558.56
2023-04-15T23:28:53.944Z,96558.94
2023-04-15T23:31:20.577Z,96558.28
2023-04-15T23:33:47.167Z,96559.31
2023-04-15T23:36:13.834Z,96558.97
2023-04-15T23:38:40.527Z,96555.50
2023-04-15T23:41:07.066Z,96553.13
2023-04-15T23:43:33.663Z,96504.41
2023-04-15T23:46:00.314Z,96515.84
2023-04-15T23:48:26.971Z,96551.38
2023-04-15T23:50:53.546Z,96552.03
2023-04-15T23:53:20.212Z,96517.03
2023-04-15T23:55:46.799Z,96434.41
2023-04-15T23:58:13.404Z,96486.47
